Time;durP1;ratioP1;P1;durP2;ratioP2;P2;SDS_P1;SDS_P2;PMS_P1;PMS_P2;Temp;Humidity;BMP_temperature;BMP_pressure;BME280_temperature;BME280_humidity;BME280_pressure;Samples;Min_cycle;Max_cycle;Signal;HPM_P1;HPM_P2
2024/01/18 00:01:34;;;;;;;21.67;10.00;;;;;;;;;;5075289;28;20360;-32
2024/01/18 00:04:00;;;;;;;17.65;9.55;;;;;;;;;;5093411;28;20016;-33
2024/01/18 00:06:25;;;;;;;24.63;10.50;;;;;;;;;;5097416;28;20062;-32
2024/01/18 00:08:50;;;;;;;21.63;9.80;;;;;;;;;;5097605;28;20019;-33
2024/01/18 00:11:16;;;;;;;17.30;9.47;;;;;;;;;;5097432;28;20518;-32
2024/01/18 00:13:41;;;;;;;24.50;10.23;;;;;;;;;;5097475;28;20258;-32
2024/01/18 00:16:07;;;;;;;21.02;8.93;;;;;;;;;;5097982;28;20022;-32
2024/01/18 00:18:32;;;;;;;19.63;9.38;;;;;;;;;;5097337;28;20103;-33
2024/01/18 00:20:57;;;;;;;16.15;8.55;;;;;;;;;;5097335;28;20048;-32
2024/01/18 00:23:22;;;;;;;20.13;8.88;;;;;;;;;;5097161;28;20079;-33
2024/01/18 00:25:47;;;;;;;18.03;8.10;;;;;;;;;;5097587;28;20061;-33
2024/01/18 00:28:13;;;;;;;16.73;7.70;;;;;;;;;;5097772;28;20341;-33
2024/01/18 00:30:38;;;;;;;16.23;7.45;;;;;;;;;;5097438;28;20460;-32
2024/01/18 00:33:04;;;;;;;13.70;7.30;;;;;;;;;;5097430;28;20324;-33
2024/01/18 00:35:29;;;;;;;16.25;7.75;;;;;;;;;;5097055;28;20028;-33
2024/01/18 00:37:55;;;;;;;15.23;7.97;;;;;;;;;;5097597;28;20024;-33
2024/01/18 00:40:20;;;;;;;14.88;7.53;;;;;;;;;;5096942;28;20370;-33
2024/01/18 00:42:45;;;;;;;14.07;7.18;;;;;;;;;;5097249;28;20188;-33
2024/01/18 00:45:10;;;;;;;15.75;7.88;;;;;;;;;;5096939;28;20065;-32
2024/01/18 00:47:36;;;;;;;12.70;6.93;;;;;;;;;;5097174;28;20411;-33
2024/01/18 00:50:01;;;;;;;16.27;7.63;;;;;;;;;;5096830;28;20104;-33
2024/01/18 00:52:26;;;;;;;17.08;6.93;;;;;;;;;;5097431;28;20250;-32
2024/01/18 00:54:51;;;;;;;13.63;7.68;;;;;;;;;;5096740;28;20077;-32
2024/01/18 00:57:16;;;;;;;16.95;7.53;;;;;;;;;;5097255;28;20020;-33
2024/01/18 00:59:42;;;;;;;11.50;7.05;;;;;;;;;;5096655;28;20069;-32
2024/01/18 01:02:08;;;;;;;14.18;7.32;;;;;;;;;;5096869;28;20367;-32
2024/01/18 01:04:33;;;;;;;15.35;7.28;;;;;;;;;;5096780;28;20016;-32
2024/01/18 01:06:58;;;;;;;19.65;7.35;;;;;;;;;;5096338;28;20551;-32
2024/01/18 01:09:24;;;;;;;15.95;6.45;;;;;;;;;;5096482;28;20016;-32
2024/01/18 01:11:49;;;;;;;17.27;6.70;;;;;;;;;;5096657;28;20020;-33
2024/01/18 01:14:14;;;;;;;15.45;6.60;;;;;;;;;;5096438;28;20375;-33
2024/01/18 01:16:39;;;;;;;15.38;6.35;;;;;;;;;;5094709;28;20475;-33
2024/01/18 01:19:05;;;;;;;15.52;6.47;;;;;;;;;;5095620;28;20024;-32
2024/01/18 01:21:30;;;;;;;15.13;6.73;;;;;;;;;;5096200;28;20486;-33
2024/01/18 01:23:56;;;;;;;11.93;6.35;;;;;;;;;;5096753;28;20253;-33
2024/01/18 01:26:21;;;;;;;16.90;7.20;;;;;;;;;;5096054;28;20524;-33
2024/01/18 01:28:49;;;;;;;13.27;6.80;;;;;;;;;;5096566;28;20020;-32
2024/01/18 01:31:14;;;;;;;18.35;7.10;;;;;;;;;;5096313;28;20016;-33
2024/01/18 01:33:41;;;;;;;11.80;6.25;;;;;;;;;;5096582;28;20031;-32
2024/01/18 01:36:07;;;;;;;10.65;6.18;;;;;;;;;;5096187;28;20479;-33
2024/01/18 01:38:32;;;;;;;13.48;6.18;;;;;;;;;;5095921;28;20024;-33
2024/01/18 01:40:57;;;;;;;16.63;6.70;;;;;;;;;;5096001;28;20024;-33
2024/01/18 01:43:23;;;;;;;12.27;6.35;;;;;;;;;;5096095;28;20098;-32
2024/01/18 01:45:48;;;;;;;12.37;6.87;;;;;;;;;;5095799;28;20024;-33
2024/01/18 01:48:14;;;;;;;13.38;7.05;;;;;;;;;;5095618;28;20262;-31
2024/01/18 01:50:39;;;;;;;16.90;7.32;;;;;;;;;;5095661;28;20024;-31
2024/01/18 01:53:06;;;;;;;13.60;7.38;;;;;;;;;;5095907;28;20543;-31
2024/01/18 01:55:31;;;;;;;16.55;7.45;;;;;;;;;;5095405;28;20071;-31
2024/01/18 01:57:57;;;;;;;14.95;7.53;;;;;;;;;;5096111;28;20016;-31
2024/01/18 02:00:22;;;;;;;16.05;7.75;;;;;;;;;;5095367;28;20024;-32
2024/01/18 02:02:48;;;;;;;12.88;7.10;;;;;;;;;;5095992;28;20036;-31
2024/01/18 02:05:14;;;;;;;13.20;7.15;;;;;;;;;;5095545;28;20012;-32
2024/01/18 02:07:39;;;;;;;16.55;6.82;;;;;;;;;;5095208;28;20494;-32
2024/01/18 02:10:05;;;;;;;12.77;5.90;;;;;;;;;;5095553;28;20490;-31
2024/01/18 02:12:31;;;;;;;14.35;6.57;;;;;;;;;;5095458;28;20023;-32
2024/01/18 02:14:57;;;;;;;10.75;5.95;;;;;;;;;;5095707;28;20417;-32
2024/01/18 02:17:22;;;;;;;11.88;6.00;;;;;;;;;;5095355;28;20375;-31
2024/01/18 02:19:47;;;;;;;14.05;6.07;;;;;;;;;;5094999;28;20039;-32
2024/01/18 02:22:13;;;;;;;10.65;5.82;;;;;;;;;;5095362;28;20023;-31
2024/01/18 02:24:44;;;;;;;12.90;6.00;;;;;;;;;;5095128;28;20061;-32
2024/01/18 02:27:09;;;;;;;14.02;5.75;;;;;;;;;;5095168;28;20020;-31
2024/01/18 02:29:35;;;;;;;12.50;5.65;;;;;;;;;;5094438;28;20108;-32
2024/01/18 02:32:00;;;;;;;16.60;6.38;;;;;;;;;;5094793;28;20095;-31
2024/01/18 02:34:25;;;;;;;14.60;6.38;;;;;;;;;;5095094;28;20519;-32
2024/01/18 02:36:50;;;;;;;11.57;5.63;;;;;;;;;;5095295;28;20490;-31
2024/01/18 02:39:15;;;;;;;12.10;5.50;;;;;;;;;;5095244;28;20382;-32
2024/01/18 02:41:41;;;;;;;9.25;4.97;;;;;;;;;;5095025;28;20016;-31
2024/01/18 02:44:07;;;;;;;13.82;5.22;;;;;;;;;;5095196;28;20414;-32
2024/01/18 02:46:32;;;;;;;12.07;5.50;;;;;;;;;;5094581;28;20016;-32
2024/01/18 02:48:58;;;;;;;12.32;5.30;;;;;;;;;;5094870;28;20023;-32
2024/01/18 02:51:23;;;;;;;12.77;4.80;;;;;;;;;;5094705;28;20016;-32
2024/01/18 02:53:48;;;;;;;10.38;4.38;;;;;;;;;;5094955;28;20157;-32
2024/01/18 02:56:13;;;;;;;9.33;4.83;;;;;;;;;;5094936;28;20023;-32
2024/01/18 02:58:39;;;;;;;9.07;4.28;;;;;;;;;;5094305;28;20251;-32
2024/01/18 03:01:04;;;;;;;9.65;4.43;;;;;;;;;;5094258;28;20024;-32
2024/01/18 03:03:29;;;;;;;13.45;5.68;;;;;;;;;;5094682;28;20097;-32
2024/01/18 03:05:54;;;;;;;9.77;4.90;;;;;;;;;;5094112;28;20483;-31
2024/01/18 03:08:19;;;;;;;9.98;4.65;;;;;;;;;;5094644;28;20307;-32
2024/01/18 03:10:45;;;;;;;12.48;4.82;;;;;;;;;;5094408;28;20095;-31
2024/01/18 03:13:10;;;;;;;12.65;4.22;;;;;;;;;;5094253;28;20020;-32
2024/01/18 03:15:35;;;;;;;12.77;4.70;;;;;;;;;;5094243;28;20024;-32
2024/01/18 03:18:00;;;;;;;12.52;4.85;;;;;;;;;;5094470;28;20059;-32
2024/01/18 03:20:25;;;;;;;10.02;4.75;;;;;;;;;;5093841;28;20012;-32
2024/01/18 03:22:51;;;;;;;8.68;4.63;;;;;;;;;;5094183;28;20027;-32
2024/01/18 03:25:16;;;;;;;9.40;4.75;;;;;;;;;;5094060;28;20027;-31
2024/01/18 03:27:42;;;;;;;10.98;4.60;;;;;;;;;;5094112;28;20020;-32
2024/01/18 03:30:08;;;;;;;9.93;4.50;;;;;;;;;;5094011;28;20030;-32
2024/01/18 03:32:33;;;;;;;12.60;4.82;;;;;;;;;;5093753;28;20024;-31
2024/01/18 03:34:59;;;;;;;8.43;4.20;;;;;;;;;;5093902;28;20483;-32
2024/01/18 03:37:24;;;;;;;9.63;4.50;;;;;;;;;;5093939;28;20015;-32
2024/01/18 03:39:49;;;;;;;11.75;4.35;;;;;;;;;;5093731;28;20485;-31
2024/01/18 03:42:14;;;;;;;9.55;4.50;;;;;;;;;;5093843;28;20022;-32
2024/01/18 03:44:40;;;;;;;9.55;4.18;;;;;;;;;;5093761;28;20099;-32
2024/01/18 03:47:05;;;;;;;11.05;4.50;;;;;;;;;;5093949;28;20062;-32
2024/01/18 03:49:30;;;;;;;9.93;3.85;;;;;;;;;;5093716;28;20024;-32
2024/01/18 03:51:55;;;;;;;6.35;3.50;;;;;;;;;;5093592;28;20020;-31
2024/01/18 03:54:20;;;;;;;16.25;3.75;;;;;;;;;;5093753;28;20040;-31
2024/01/18 03:56:46;;;;;;;11.05;3.95;;;;;;;;;;5093465;28;20395;-32
2024/01/18 03:59:14;;;;;;;9.98;3.53;;;;;;;;;;5093372;28;20020;-31
2024/01/18 04:01:40;;;;;;;6.43;3.22;;;;;;;;;;5093713;28;20035;-32
2024/01/18 04:04:05;;;;;;;7.35;3.28;;;;;;;;;;5093734;28;20375;-32
2024/01/18 04:06:30;;;;;;;9.50;2.70;;;;;;;;;;5093484;28;20051;-30
2024/01/18 04:08:56;;;;;;;6.53;2.75;;;;;;;;;;5093379;28;20048;-32
2024/01/18 04:11:22;;;;;;;11.40;3.08;;;;;;;;;;5093247;28;20024;-32
2024/01/18 04:13:47;;;;;;;9.20;3.00;;;;;;;;;;5093300;28;20028;-32
2024/01/18 04:16:12;;;;;;;8.98;2.80;;;;;;;;;;5093543;28;20023;-32
2024/01/18 04:18:38;;;;;;;10.50;3.20;;;;;;;;;;5093266;28;20017;-32
2024/01/18 04:21:03;;;;;;;8.10;2.90;;;;;;;;;;5093707;28;20024;-32
2024/01/18 04:23:28;;;;;;;5.40;2.63;;;;;;;;;;5093502;28;20672;-31
2024/01/18 04:25:54;;;;;;;5.20;2.92;;;;;;;;;;5093227;28;20020;-31
2024/01/18 04:28:19;;;;;;;6.82;3.30;;;;;;;;;;5093172;28;20024;-32
2024/01/18 04:30:44;;;;;;;8.55;3.10;;;;;;;;;;5093760;28;20032;-32
2024/01/18 04:33:10;;;;;;;7.85;3.30;;;;;;;;;;5093403;28;20093;-32
2024/01/18 04:35:35;;;;;;;7.90;3.45;;;;;;;;;;5093393;28;20508;-32
2024/01/18 04:38:00;;;;;;;7.90;3.60;;;;;;;;;;5093116;28;20077;-32
2024/01/18 04:40:25;;;;;;;7.80;3.17;;;;;;;;;;5093245;28;20369;-32
2024/01/18 04:42:51;;;;;;;8.73;3.40;;;;;;;;;;5093615;28;20091;-31
2024/01/18 04:45:16;;;;;;;7.28;3.10;;;;;;;;;;5093293;28;20020;-32
2024/01/18 04:47:41;;;;;;;6.15;3.55;;;;;;;;;;5093522;28;20020;-31
2024/01/18 04:50:08;;;;;;;12.68;5.40;;;;;;;;;;5092978;28;20426;-32
2024/01/18 04:52:33;;;;;;;11.05;4.97;;;;;;;;;;5095887;28;20024;-32
2024/01/18 04:55:02;;;;;;;9.45;4.70;;;;;;;;;;5096741;28;20196;-32
2024/01/18 04:57:28;;;;;;;8.40;4.45;;;;;;;;;;5096888;28;20028;-32
2024/01/18 04:59:53;;;;;;;7.55;4.63;;;;;;;;;;5096795;28;20047;-32
2024/01/18 05:02:19;;;;;;;12.25;4.78;;;;;;;;;;5096872;28;20027;-31
2024/01/18 05:04:44;;;;;;;15.13;7.53;;;;;;;;;;5096849;28;20422;-32
2024/01/18 05:07:10;;;;;;;10.48;5.38;;;;;;;;;;5096359;28;20075;-31
2024/01/18 05:09:36;;;;;;;13.43;6.45;;;;;;;;;;5096765;28;20024;-31
2024/01/18 05:12:01;;;;;;;12.43;6.45;;;;;;;;;;5096434;28;20016;-31
2024/01/18 05:14:26;;;;;;;13.65;7.25;;;;;;;;;;5096911;28;20027;-31
2024/01/18 05:16:53;;;;;;;14.00;6.50;;;;;;;;;;5096320;28;20467;-32
2024/01/18 05:19:18;;;;;;;13.48;6.75;;;;;;;;;;5096716;28;20328;-32
2024/01/18 05:21:43;;;;;;;16.02;5.68;;;;;;;;;;5096126;28;20024;-32
2024/01/18 05:24:09;;;;;;;10.80;4.33;;;;;;;;;;5096463;28;20024;-32
2024/01/18 05:26:34;;;;;;;8.88;4.38;;;;;;;;;;5077948;28;20590;-32
2024/01/18 05:28:59;;;;;;;8.98;4.22;;;;;;;;;;5096578;28;20097;-32
2024/01/18 05:31:25;;;;;;;11.93;4.70;;;;;;;;;;5096254;28;20441;-32
2024/01/18 05:33:50;;;;;;;8.70;4.25;;;;;;;;;;5096273;28;20046;-32
2024/01/18 05:36:15;;;;;;;8.80;3.63;;;;;;;;;;5096189;28;20024;-32
2024/01/18 05:38:41;;;;;;;8.27;4.20;;;;;;;;;;5095850;28;20448;-31
2024/01/18 05:41:06;;;;;;;10.80;5.10;;;;;;;;;;5096223;28;20342;-31
2024/01/18 05:43:31;;;;;;;11.50;5.25;;;;;;;;;;5095979;28;20032;-32
2024/01/18 05:45:56;;;;;;;10.73;5.40;;;;;;;;;;5095645;28;20430;-31
2024/01/18 05:48:21;;;;;;;9.45;4.78;;;;;;;;;;5095970;28;20063;-32
2024/01/18 05:50:47;;;;;;;13.00;5.85;;;;;;;;;;5095681;28;20095;-32
2024/01/18 05:53:12;;;;;;;12.80;5.88;;;;;;;;;;5096661;28;20020;-32
2024/01/18 05:55:37;;;;;;;10.65;4.72;;;;;;;;;;5095531;28;20020;-32
2024/01/18 05:58:02;;;;;;;10.95;5.00;;;;;;;;;;5095465;28;20028;-32
2024/01/18 06:00:28;;;;;;;10.68;4.43;;;;;;;;;;5095691;28;20024;-32
2024/01/18 06:02:53;;;;;;;12.85;4.68;;;;;;;;;;5095442;28;20403;-32
2024/01/18 06:05:18;;;;;;;9.90;4.30;;;;;;;;;;5095320;28;20012;-32
2024/01/18 06:07:44;;;;;;;9.77;4.07;;;;;;;;;;5095202;28;20040;-31
2024/01/18 06:10:09;;;;;;;7.95;4.40;;;;;;;;;;5095305;28;20711;-32
2024/01/18 06:12:34;;;;;;;10.02;4.10;;;;;;;;;;5095187;28;20020;-32
2024/01/18 06:15:00;;;;;;;6.07;3.87;;;;;;;;;;5095469;28;20020;-32
2024/01/18 06:17:25;;;;;;;11.38;3.85;;;;;;;;;;5095695;28;20256;-32
2024/01/18 06:19:51;;;;;;;8.80;3.30;;;;;;;;;;5095183;28;20099;-32
2024/01/18 06:22:16;;;;;;;10.63;3.63;;;;;;;;;;5095201;28;20031;-32
2024/01/18 06:24:41;;;;;;;7.22;3.33;;;;;;;;;;5095000;28;20413;-32
2024/01/18 06:27:06;;;;;;;9.80;2.77;;;;;;;;;;5094869;28;20016;-31
2024/01/18 06:29:31;;;;;;;8.83;3.30;;;;;;;;;;5094854;28;20833;-31
2024/01/18 06:31:57;;;;;;;10.55;3.55;;;;;;;;;;5094800;28;20337;-32
2024/01/18 06:34:22;;;;;;;8.05;3.97;;;;;;;;;;5095116;28;20024;-32
2024/01/18 06:36:47;;;;;;;13.73;4.25;;;;;;;;;;5094810;28;20016;-32
2024/01/18 06:39:13;;;;;;;6.87;3.67;;;;;;;;;;5094674;28;20031;-32
2024/01/18 06:41:39;;;;;;;7.95;3.70;;;;;;;;;;5094796;28;20258;-32
2024/01/18 06:44:05;;;;;;;6.93;3.40;;;;;;;;;;5094862;28;20041;-32
2024/01/18 06:46:31;;;;;;;11.30;4.32;;;;;;;;;;5095024;28;20016;-32
2024/01/18 06:48:57;;;;;;;8.30;3.80;;;;;;;;;;5094674;28;20027;-31
2024/01/18 06:51:22;;;;;;;9.23;4.00;;;;;;;;;;5094337;28;20024;-32
2024/01/18 06:53:47;;;;;;;11.85;3.92;;;;;;;;;;5094824;28;20016;-32
2024/01/18 06:56:13;;;;;;;7.70;4.03;;;;;;;;;;5094651;28;20020;-31
2024/01/18 06:58:39;;;;;;;9.13;4.22;;;;;;;;;;5094276;28;20012;-31
2024/01/18 07:01:04;;;;;;;8.73;4.50;;;;;;;;;;5094145;28;20047;-31
2024/01/18 07:03:30;;;;;;;11.60;4.53;;;;;;;;;;5094481;28;20008;-31
2024/01/18 07:05:56;;;;;;;12.98;5.95;;;;;;;;;;5094533;28;20040;-32
2024/01/18 07:08:21;;;;;;;15.35;6.63;;;;;;;;;;5094187;28;20012;-32
2024/01/18 07:10:48;;;;;;;15.27;6.87;;;;;;;;;;5093813;28;20119;-32
2024/01/18 07:13:13;;;;;;;12.20;6.32;;;;;;;;;;5092652;28;20295;-32
2024/01/18 07:15:38;;;;;;;13.57;6.00;;;;;;;;;;5093876;28;20066;-32
2024/01/18 07:18:03;;;;;;;15.52;6.57;;;;;;;;;;5094041;28;20019;-32
2024/01/18 07:20:29;;;;;;;12.18;6.30;;;;;;;;;;5092759;28;20112;-32
2024/01/18 07:22:54;;;;;;;11.27;5.82;;;;;;;;;;5091939;28;20020;-32
2024/01/18 07:25:19;;;;;;;15.32;6.43;;;;;;;;;;5091916;28;20020;-31
2024/01/18 07:27:44;;;;;;;17.05;6.63;;;;;;;;;;5091886;28;20031;-32
2024/01/18 07:30:10;;;;;;;19.30;6.50;;;;;;;;;;5092045;28;20123;-31
2024/01/18 07:32:35;;;;;;;11.95;6.20;;;;;;;;;;5091999;28;20056;-32
2024/01/18 07:35:00;;;;;;;17.70;6.38;;;;;;;;;;5092522;28;20532;-32
2024/01/18 07:37:27;;;;;;;12.60;6.10;;;;;;;;;;5093905;28;20095;-31
2024/01/18 07:39:52;;;;;;;14.35;5.82;;;;;;;;;;5093831;28;20024;-32
2024/01/18 07:42:17;;;;;;;13.23;6.57;;;;;;;;;;5093591;28;20027;-32
2024/01/18 07:44:44;;;;;;;12.27;5.78;;;;;;;;;;5093791;28;20020;-32
2024/01/18 07:47:10;;;;;;;10.20;5.65;;;;;;;;;;5093481;28;20062;-32
2024/01/18 07:49:35;;;;;;;12.18;6.10;;;;;;;;;;5093802;28;20016;-32
2024/01/18 07:52:00;;;;;;;16.20;5.95;;;;;;;;;;5093435;28;20023;-32
2024/01/18 07:54:27;;;;;;;9.98;5.65;;;;;;;;;;5093730;28;20031;-31
2024/01/18 07:56:52;;;;;;;11.27;5.85;;;;;;;;;;5093609;28;20081;-32
2024/01/18 07:59:18;;;;;;;14.18;7.00;;;;;;;;;;5093817;28;20103;-32
2024/01/18 08:01:45;;;;;;;13.95;6.82;;;;;;;;;;5093566;28;20363;-32
2024/01/18 08:04:10;;;;;;;14.27;6.68;;;;;;;;;;5093624;28;20027;-32
2024/01/18 08:06:35;;;;;;;15.20;7.00;;;;;;;;;;5093304;28;20422;-31
2024/01/18 08:09:00;;;;;;;12.68;6.70;;;;;;;;;;5093257;28;20337;-32
2024/01/18 08:11:25;;;;;;;14.53;6.67;;;;;;;;;;5093245;28;20378;-32
2024/01/18 08:13:51;;;;;;;18.85;6.65;;;;;;;;;;5093396;28;20262;-32
2024/01/18 08:16:16;;;;;;;13.20;6.57;;;;;;;;;;5093159;28;20030;-32
2024/01/18 08:18:42;;;;;;;16.02;6.75;;;;;;;;;;5093776;28;20028;-32
2024/01/18 08:21:07;;;;;;;14.50;6.07;;;;;;;;;;5093266;28;20020;-31
2024/01/18 08:23:32;;;;;;;14.57;6.43;;;;;;;;;;5093473;28;20052;-32
2024/01/18 08:25:57;;;;;;;11.50;6.72;;;;;;;;;;5093269;28;20243;-32
2024/01/18 08:28:23;;;;;;;19.55;7.93;;;;;;;;;;5097635;28;20026;-32
2024/01/18 08:30:48;;;;;;;13.32;7.03;;;;;;;;;;5097487;28;20451;-32
2024/01/18 08:33:13;;;;;;;11.75;6.50;;;;;;;;;;5097160;28;20020;-31
2024/01/18 08:35:39;;;;;;;10.75;6.18;;;;;;;;;;5097157;28;20028;-32
2024/01/18 08:38:04;;;;;;;14.40;6.63;;;;;;;;;;5097595;28;20020;-31
2024/01/18 08:40:29;;;;;;;20.70;8.27;;;;;;;;;;5096430;28;20028;-31
2024/01/18 08:42:56;;;;;;;17.83;7.47;;;;;;;;;;5096725;28;20095;-32
2024/01/18 08:45:21;;;;;;;18.27;7.68;;;;;;;;;;5097540;28;20495;-32
2024/01/18 08:47:47;;;;;;;16.05;7.70;;;;;;;;;;5078935;28;20051;-31
2024/01/18 08:50:15;;;;;;;17.38;7.68;;;;;;;;;;5096807;28;20103;-31
2024/01/18 08:52:40;;;;;;;20.58;8.02;;;;;;;;;;5097341;28;20384;-32
2024/01/18 08:55:06;;;;;;;12.73;6.47;;;;;;;;;;5096855;28;20028;-31
2024/01/18 08:57:31;;;;;;;12.73;6.50;;;;;;;;;;5096809;28;20024;-33
2024/01/18 08:59:56;;;;;;;15.18;6.57;;;;;;;;;;5097003;28;20024;-32
2024/01/18 09:02:22;;;;;;;13.35;6.65;;;;;;;;;;5096689;28;20371;-32
2024/01/18 09:04:47;;;;;;;12.90;6.03;;;;;;;;;;5096727;28;20058;-32
2024/01/18 09:07:12;;;;;;;14.82;6.35;;;;;;;;;;5096627;28;20066;-32
2024/01/18 09:09:37;;;;;;;13.93;6.13;;;;;;;;;;5096562;28;20020;-32
2024/01/18 09:12:02;;;;;;;14.27;6.18;;;;;;;;;;5096791;28;20250;-32
2024/01/18 09:14:27;;;;;;;16.63;6.10;;;;;;;;;;5096494;28;20023;-32
2024/01/18 09:16:53;;;;;;;17.55;6.57;;;;;;;;;;5096471;28;20031;-32
2024/01/18 09:19:20;;;;;;;11.98;5.60;;;;;;;;;;5096133;28;20103;-33
2024/01/18 09:21:46;;;;;;;10.43;5.70;;;;;;;;;;5096644;28;20070;-32
2024/01/18 09:24:12;;;;;;;15.27;5.45;;;;;;;;;;5096219;28;20027;-32
2024/01/18 09:26:39;;;;;;;18.23;4.15;;;;;;;;;;5096519;28;20115;-32
2024/01/18 09:29:05;;;;;;;7.85;4.25;;;;;;;;;;5096239;28;20055;-32
2024/01/18 09:31:30;;;;;;;15.48;4.80;;;;;;;;;;5096190;28;20038;-32
2024/01/18 09:33:56;;;;;;;15.50;4.40;;;;;;;;;;5096577;28;20016;-32
2024/01/18 09:36:21;;;;;;;13.45;4.55;;;;;;;;;;5096434;28;20753;-31
2024/01/18 09:38:48;;;;;;;13.80;4.30;;;;;;;;;;5095456;28;20023;-31
2024/01/18 09:41:15;;;;;;;12.98;4.38;;;;;;;;;;5095887;28;20282;-31
2024/01/18 09:43:40;;;;;;;10.25;4.55;;;;;;;;;;5095754;28;20482;-31
2024/01/18 09:46:07;;;;;;;8.30;4.18;;;;;;;;;;5095940;28;20062;-32
2024/01/18 09:48:33;;;;;;;11.68;3.90;;;;;;;;;;5095943;28;20020;-32
2024/01/18 09:50:59;;;;;;;9.73;3.80;;;;;;;;;;5095614;28;20024;-32
2024/01/18 09:53:24;;;;;;;9.27;3.08;;;;;;;;;;5094743;28;20379;-32
2024/01/18 09:55:50;;;;;;;13.07;3.25;;;;;;;;;;5095129;28;20654;-33
2024/01/18 09:58:15;;;;;;;10.80;2.85;;;;;;;;;;5095401;28;20020;-33
2024/01/18 10:00:47;;;;;;;6.53;2.88;;;;;;;;;;5077271;28;20031;-32
2024/01/18 10:03:12;;;;;;;8.70;2.47;;;;;;;;;;5077257;28;20145;-32
2024/01/18 10:05:38;;;;;;;7.30;2.30;;;;;;;;;;5095986;28;20127;-31
2024/01/18 10:08:04;;;;;;;5.22;1.95;;;;;;;;;;5095526;28;20020;-32
2024/01/18 10:10:29;;;;;;;7.28;2.17;;;;;;;;;;5095799;28;20022;-32
2024/01/18 10:12:54;;;;;;;6.05;2.30;;;;;;;;;;5095282;28;20024;-32
2024/01/18 10:15:33;;;;;;;3.87;2.00;;;;;;;;;;5095571;28;20101;-33
2024/01/18 10:18:04;;;;;;;6.05;2.33;;;;;;;;;;5095471;28;20118;-33
2024/01/18 10:20:30;;;;;;;6.18;2.40;;;;;;;;;;5095135;28;20494;-32
2024/01/18 10:22:55;;;;;;;12.25;2.22;;;;;;;;;;5095166;28;20024;-32
2024/01/18 10:25:25;;;;;;;8.45;2.50;;;;;;;;;;5095338;28;20024;-32
2024/01/18 10:27:52;;;;;;;14.90;2.55;;;;;;;;;;5095255;28;20065;-32
2024/01/18 10:30:17;;;;;;;9.93;2.50;;;;;;;;;;5095206;28;20409;-31
2024/01/18 10:32:45;;;;;;;6.45;2.60;;;;;;;;;;5095249;28;20023;-32
2024/01/18 10:35:18;;;;;;;5.25;2.05;;;;;;;;;;5095083;28;20103;-32
2024/01/18 10:37:44;;;;;;;8.43;2.50;;;;;;;;;;5095070;28;20070;-32
2024/01/18 10:40:10;;;;;;;4.85;2.20;;;;;;;;;;5094973;28;20051;-31
2024/01/18 10:42:35;;;;;;;5.68;2.40;;;;;;;;;;5094939;28;20364;-32
2024/01/18 10:45:01;;;;;;;8.57;3.10;;;;;;;;;;5094965;28;20017;-32
2024/01/18 10:47:26;;;;;;;7.15;2.65;;;;;;;;;;5094812;28;20016;-31
2024/01/18 10:49:53;;;;;;;10.82;2.60;;;;;;;;;;5093678;28;20032;-32
2024/01/18 10:52:18;;;;;;;5.13;2.38;;;;;;;;;;5094762;28;20020;-32
2024/01/18 10:54:45;;;;;;;5.85;2.40;;;;;;;;;;5095116;28;20371;-31
2024/01/18 10:57:12;;;;;;;6.63;2.50;;;;;;;;;;5094440;28;20107;-32
2024/01/18 10:59:37;;;;;;;5.28;2.50;;;;;;;;;;5094247;28;20028;-32
2024/01/18 11:02:02;;;;;;;4.77;2.13;;;;;;;;;;5094544;28;20073;-31
2024/01/18 11:04:28;;;;;;;5.40;2.25;;;;;;;;;;5074091;28;20756;-33
2024/01/18 11:06:55;;;;;;;7.85;2.20;;;;;;;;;;5091880;28;20321;-32
2024/01/18 11:09:20;;;;;;;6.30;1.85;;;;;;;;;;5091602;28;20012;-33
2024/01/18 11:11:46;;;;;;;11.88;2.20;;;;;;;;;;5090813;28;20085;-32
2024/01/18 11:14:12;;;;;;;13.65;2.42;;;;;;;;;;5091920;28;20451;-37
2024/01/18 11:16:37;;;;;;;4.43;1.70;;;;;;;;;;5092030;28;20540;-33
2024/01/18 11:19:03;;;;;;;6.25;2.42;;;;;;;;;;5091753;28;20031;-32
2024/01/18 11:21:41;;;;;;;6.67;3.63;;;;;;;;;;5091744;28;20020;-32
2024/01/18 11:24:10;;;;;;;4.88;1.90;;;;;;;;;;5091864;28;20024;-32
2024/01/18 11:26:35;;;;;;;6.25;1.88;;;;;;;;;;5093343;28;20057;-32
2024/01/18 11:29:18;;;;;;;6.50;2.00;;;;;;;;;;5075634;28;20016;-32
2024/01/18 11:31:50;;;;;;;3.45;1.55;;;;;;;;;;5094013;28;20028;-33
2024/01/18 11:34:28;;;;;;;5.22;1.70;;;;;;;;;;5094952;28;20016;-32
2024/01/18 11:37:07;;;;;;;4.45;1.63;;;;;;;;;;5093636;28;20019;-32
2024/01/18 11:39:52;;;;;;;3.50;1.40;;;;;;;;;;5093690;28;20031;-32
2024/01/18 11:42:18;;;;;;;3.78;1.48;;;;;;;;;;5094234;28;20023;-32
2024/01/18 11:44:50;;;;;;;6.25;1.70;;;;;;;;;;5093784;28;20028;-32
2024/01/18 11:47:16;;;;;;;5.20;1.50;;;;;;;;;;5093988;28;20027;-32
2024/01/18 11:49:41;;;;;;;4.68;1.50;;;;;;;;;;5093605;28;20297;-31
2024/01/18 11:52:06;;;;;;;5.73;1.20;;;;;;;;;;5093794;28;20020;-32
2024/01/18 11:54:32;;;;;;;4.73;1.30;;;;;;;;;;5094327;28;20285;-31
2024/01/18 11:56:58;;;;;;;5.38;1.55;;;;;;;;;;5093563;28;20736;-32
2024/01/18 11:59:23;;;;;;;3.58;1.20;;;;;;;;;;5093438;28;20022;-34
2024/01/18 12:01:48;;;;;;;4.10;1.20;;;;;;;;;;5093477;28;20094;-31
2024/01/18 12:04:13;;;;;;;3.27;1.37;;;;;;;;;;5093450;28;20023;-32
2024/01/18 12:06:39;;;;;;;6.40;1.90;;;;;;;;;;5093636;28;20290;-31
2024/01/18 12:09:04;;;;;;;7.82;2.20;;;;;;;;;;5093598;28;20348;-32
2024/01/18 12:11:31;;;;;;;4.38;1.42;;;;;;;;;;5093522;28;20089;-32
2024/01/18 12:13:56;;;;;;;5.00;1.40;;;;;;;;;;5093324;28;20016;-32
2024/01/18 12:16:21;;;;;;;3.73;1.37;;;;;;;;;;5093621;28;20141;-31
2024/01/18 12:18:47;;;;;;;4.50;1.48;;;;;;;;;;5093257;28;20262;-32
2024/01/18 12:21:16;;;;;;;2.80;1.30;;;;;;;;;;5093663;28;20024;-32
2024/01/18 12:23:41;;;;;;;5.10;1.75;;;;;;;;;;5075390;28;20057;-32
2024/01/18 12:26:07;;;;;;;6.70;1.77;;;;;;;;;;5093085;28;20480;-32
2024/01/18 12:28:32;;;;;;;5.13;1.50;;;;;;;;;;5093753;28;20012;-33
2024/01/18 12:31:01;;;;;;;4.03;1.50;;;;;;;;;;5093457;28;20047;-32
2024/01/18 12:33:27;;;;;;;4.38;1.50;;;;;;;;;;5093340;28;20031;-32
2024/01/18 12:35:53;;;;;;;4.80;1.80;;;;;;;;;;5093056;28;20027;-33
2024/01/18 12:38:19;;;;;;;6.25;1.70;;;;;;;;;;5093713;28;20055;-33
2024/01/18 12:40:44;;;;;;;3.88;1.27;;;;;;;;;;5093043;28;20426;-33
2024/01/18 12:43:09;;;;;;;3.60;1.40;;;;;;;;;;5093440;28;20035;-33
2024/01/18 12:45:34;;;;;;;8.18;1.70;;;;;;;;;;5093155;28;20019;-32
2024/01/18 12:47:59;;;;;;;6.10;1.50;;;;;;;;;;5092543;28;20024;-33
2024/01/18 12:50:25;;;;;;;5.47;1.53;;;;;;;;;;5092538;28;20028;-33
2024/01/18 12:52:51;;;;;;;3.65;1.65;;;;;;;;;;5092802;28;20095;-32
2024/01/18 12:55:17;;;;;;;4.80;1.67;;;;;;;;;;5092564;28;20035;-32
2024/01/18 12:57:42;;;;;;;4.55;1.70;;;;;;;;;;5092447;28;20020;-32
2024/01/18 13:00:09;;;;;;;4.20;1.77;;;;;;;;;;5092326;28;20035;-32
2024/01/18 13:02:35;;;;;;;3.85;1.40;;;;;;;;;;5093164;28;20399;-32
2024/01/18 13:05:00;;;;;;;5.43;1.67;;;;;;;;;;5092908;28;20016;-32
2024/01/18 13:07:25;;;;;;;4.20;1.58;;;;;;;;;;5092814;28;20051;-32
2024/01/18 13:09:51;;;;;;;6.27;1.70;;;;;;;;;;5092819;28;20020;-31
2024/01/18 13:12:16;;;;;;;4.05;1.60;;;;;;;;;;5093089;28;20258;-31
2024/01/18 13:14:45;;;;;;;5.30;1.50;;;;;;;;;;5096388;28;20016;-31
2024/01/18 13:17:14;;;;;;;6.10;1.75;;;;;;;;;;5096406;28;20280;-31
2024/01/18 13:19:39;;;;;;;3.55;1.30;;;;;;;;;;5078101;28;20020;-32
2024/01/18 13:22:05;;;;;;;2.53;1.30;;;;;;;;;;5096674;28;20034;-32
2024/01/18 13:24:30;;;;;;;5.03;1.27;;;;;;;;;;5096778;28;20049;-32
2024/01/18 13:26:55;;;;;;;4.45;1.35;;;;;;;;;;5096427;28;20306;-31
2024/01/18 13:29:20;;;;;;;6.30;1.40;;;;;;;;;;5096255;28;20392;-31
2024/01/18 13:31:47;;;;;;;5.33;1.40;;;;;;;;;;5096380;28;20261;-31
2024/01/18 13:34:12;;;;;;;3.08;1.13;;;;;;;;;;5095958;28;20258;-32
2024/01/18 13:36:37;;;;;;;4.45;1.10;;;;;;;;;;5096521;28;20147;-33
2024/01/18 13:39:06;;;;;;;6.13;1.20;;;;;;;;;;5096283;28;20095;-31
2024/01/18 13:41:31;;;;;;;2.90;0.93;;;;;;;;;;5096087;28;20424;-31
2024/01/18 13:43:56;;;;;;;5.72;1.38;;;;;;;;;;5096046;28;20031;-32
2024/01/18 13:46:22;;;;;;;2.57;1.20;;;;;;;;;;5096380;28;20030;-32
2024/01/18 13:48:47;;;;;;;6.30;1.30;;;;;;;;;;5095944;28;20020;-32
2024/01/18 13:51:15;;;;;;;5.93;1.50;;;;;;;;;;5096404;28;20439;-32
2024/01/18 13:53:41;;;;;;;5.97;1.70;;;;;;;;;;5095609;28;20562;-32
2024/01/18 13:56:06;;;;;;;1.90;1.30;;;;;;;;;;5095578;28;20051;-31
2024/01/18 13:58:32;;;;;;;3.05;1.67;;;;;;;;;;5095629;28;20051;-32
2024/01/18 14:00:57;;;;;;;4.90;1.55;;;;;;;;;;5095445;28;20386;-31
2024/01/18 14:03:23;;;;;;;5.82;1.45;;;;;;;;;;5096012;28;20072;-31
2024/01/18 14:05:49;;;;;;;3.60;1.23;;;;;;;;;;5095439;28;20036;-31
2024/01/18 14:08:14;;;;;;;4.38;1.20;;;;;;;;;;5095418;28;20520;-32
2024/01/18 14:10:39;;;;;;;4.20;1.40;;;;;;;;;;5095459;28;20027;-32
2024/01/18 14:13:04;;;;;;;3.45;1.00;;;;;;;;;;5095119;28;20250;-31
2024/01/18 14:15:30;;;;;;;4.70;1.70;;;;;;;;;;5095732;28;20031;-32
2024/01/18 14:17:55;;;;;;;3.85;1.60;;;;;;;;;;5095832;28;20427;-32
2024/01/18 14:20:20;;;;;;;3.65;1.60;;;;;;;;;;5095046;28;20020;-32
2024/01/18 14:22:46;;;;;;;8.63;2.37;;;;;;;;;;5095704;28;20062;-32
2024/01/18 14:25:11;;;;;;;4.95;1.25;;;;;;;;;;5094939;28;20329;-32
2024/01/18 14:27:37;;;;;;;3.70;1.63;;;;;;;;;;5095329;28;20016;-32